KPHF/PHF METAR and TAF weather

Enter ICAO airport designator
Station Type Date Time Source
KPHF METAR 2023/02/05 23:45 UTC NOAA

KPHF 052345Z 19008KT 10SM BKN029 BKN037 OVC044 10/09 A3014 RMK AO2 T01000094


Station Type Date Time Source
KPHF Decoded METAR 2023/02/05 23:45 UTC NOAA

WILLIAMSBURG INTERNATIONAL AIRPORT , VA, United States (KPHF) 37-08N 76-30W 12M
Feb 05, 2023 - 06:45 PM EST / 2023.02.05 2345 UTC
Wind: from the S (190 degrees) at 9 MPH (8 KT):0
Visibility: 10 mile(s):0
Sky conditions: overcast
Temperature: 50.0 F (10.0 C)
Dew Point: 48.9 F (9.4 C)
Relative Humidity: 96%
Pressure (altimeter): 30.14 in. Hg (1020 hPa)
ob: KPHF 052345Z 19008KT 10SM BKN029 BKN037 OVC044 10/09 A3014 RMK AO2 T01000094
cycle: 0

Station Type Date Time Source
KPHF TAF 2023/02/05 22:18 UTC NOAA

TAF
AMD KPHF 052217Z 0522/0618 20009KT 4SM -RA BR OVC025
FM052330 19005KT 4SM -RA BR OVC007
FM060200 22006KT 3SM -RA BR OVC006
FM060600 26005KT 4SM BR BKN010
FM060900 29005KT P6SM SCT015 SCT250
FM061500 33011G18KT P6SM SCT050

Example: see airport list